EIHN weather

Hacketstown Aerodrome
Hacketstown, County Carlow, Ireland

Public forecast

Using degrees Celsius for public forecast. Weather courtesy of forecast.io.

METAR (pilot weather report)

Closest report is Casement Air Base, 27.0 nm (50.1 km) N. Retrieved 2019/06/19 08:30 UTC (3 minutes ago):

EIME 190830Z 25010KT 9999 FEW018 14/09 Q1009

TAF (pilot weather forecast)

Closest forecast is Dublin Airport, 35.4 nm (65.6 km) NNE. Retrieved 2019/06/19 06:09 UTC (2 hours ago):

TAF EIDW 190500Z 1906/2006 26010KT 9999 FEW020 SCT040 TEMPO 1912/1918 -SHRA SCT020CB